Time;durP1;ratioP1;P1;durP2;ratioP2;P2;SDS_P1;SDS_P2;PMS_P1;PMS_P2;Temp;Humidity;BMP_temperature;BMP_pressure;BME280_temperature;BME280_humidity;BME280_pressure;Samples;Min_cycle;Max_cycle;Signal;HPM_P1;HPM_P2
2023/05/21 00:02:10;;;;;;;2.67;2.47;;;;;;;17.02;52.97;101704.28;4916308;28;96711;-85
2023/05/21 00:04:39;;;;;;;2.47;2.37;;;;;;;17.01;52.86;101706.34;4914517;28;96998;-86
2023/05/21 00:07:05;;;;;;;2.27;2.17;;;;;;;17.02;52.95;101710.63;4927314;27;96817;-84
2023/05/21 00:09:30;;;;;;;2.60;2.50;;;;;;;17.09;52.75;101703.78;4916740;28;99264;-85
2023/05/21 00:11:56;;;;;;;2.17;2.00;;;;;;;17.13;52.83;101707.03;4913819;28;97236;-84
2023/05/21 00:14:21;;;;;;;3.30;2.77;;;;;;;17.08;52.92;101707.84;4911812;28;97186;-85
2023/05/21 00:16:46;;;;;;;2.73;2.33;;;;;;;17.00;53.11;101696.47;4917370;28;97248;-84
2023/05/21 00:19:12;;;;;;;2.07;1.97;;;;;;;17.00;52.87;101709.63;4913774;28;99140;-85
2023/05/21 00:21:38;;;;;;;2.87;2.40;;;;;;;17.03;52.79;101709.38;4912358;28;96706;-85
2023/05/21 00:24:04;;;;;;;2.30;2.20;;;;;;;17.00;52.93;101718.72;4919692;28;97122;-85
2023/05/21 00:26:30;;;;;;;2.40;2.20;;;;;;;16.88;53.11;101706.13;4914986;28;97123;-84
2023/05/21 00:28:55;;;;;;;2.73;2.43;;;;;;;16.90;53.13;101702.84;4914800;28;98101;-85
2023/05/21 00:31:21;;;;;;;2.20;2.10;;;;;;;16.88;53.07;101689.47;4915551;28;97984;-85
2023/05/21 00:33:46;;;;;;;2.57;2.40;;;;;;;16.85;53.20;101695.25;4914472;28;97349;-85
2023/05/21 00:36:15;;;;;;;3.03;2.20;;;;;;;16.83;53.28;101689.47;4914376;28;97882;-85
2023/05/21 00:38:44;;;;;;;4.00;2.13;;;;;;;16.78;53.37;101679.13;4913625;28;99518;-85
2023/05/21 00:41:10;;;;;;;3.17;1.93;;;;;;;16.79;53.25;101664.72;4916240;28;100602;-85
2023/05/21 00:43:39;;;;;;;2.10;1.90;;;;;;;16.75;53.42;101680.16;4917907;28;97888;-85
2023/05/21 00:46:06;;;;;;;2.70;2.50;;;;;;;16.75;53.37;101688.47;4919946;28;97586;-85
2023/05/21 00:48:32;;;;;;;2.83;2.37;;;;;;;16.72;53.45;101687.47;4916725;28;97366;-85
2023/05/21 00:50:57;;;;;;;2.90;2.07;;;;;;;16.69;53.52;101694.03;4918626;28;97876;-85
2023/05/21 00:53:22;;;;;;;2.97;2.50;;;;;;;16.63;53.45;101670.31;4915814;28;101962;-84
2023/05/21 00:55:49;;;;;;;5.40;2.37;;;;;;;16.54;53.52;101670.59;4922931;28;97084;-84
2023/05/21 00:58:16;;;;;;;8.73;3.10;;;;;;;16.56;53.55;101679.16;4918371;28;96795;-85
2023/05/21 01:00:42;;;;;;;2.53;2.37;;;;;;;16.53;53.45;101683.75;4918370;28;99373;-84
2023/05/21 01:03:08;;;;;;;3.73;2.20;;;;;;;16.45;53.61;101661.25;4918741;28;97276;-84
2023/05/21 01:05:33;;;;;;;2.50;2.03;;;;;;;16.51;53.58;101652.19;4917172;28;97043;-83
2023/05/21 01:07:59;;;;;;;3.17;2.23;;;;;;;16.42;53.81;101675.41;4921314;28;100679;-84
2023/05/21 01:10:26;;;;;;;2.70;2.27;;;;;;;16.43;53.76;101694.34;4919671;28;97673;-84
2023/05/21 01:12:54;;;;;;;2.47;2.27;;;;;;;16.38;53.83;101652.69;4918898;28;96778;-84
2023/05/21 01:15:19;;;;;;;2.30;2.10;;;;;;;16.31;53.62;101680.97;4924319;28;97188;-85
2023/05/21 01:17:45;;;;;;;5.23;1.97;;;;;;;16.28;53.85;101707.75;4918879;28;99416;-83
2023/05/21 01:20:11;;;;;;;8.03;2.90;;;;;;;16.37;53.91;101676.94;4931519;28;100310;-84
2023/05/21 01:22:55;;;;;;;2.07;1.97;;;;;;;16.34;54.67;101654.94;4917909;28;97155;-84
2023/05/21 01:25:24;;;;;;;2.13;2.03;;;;;;;16.28;54.27;101660.53;4915506;28;96751;-85
2023/05/21 01:27:50;;;;;;;2.13;1.93;;;;;;;16.34;53.72;101663.28;4914682;28;97614;-84
2023/05/21 01:30:18;;;;;;;4.10;2.17;;;;;;;16.33;53.81;101651.44;4919501;28;99268;-83
2023/05/21 01:33:00;;;;;;;3.17;1.90;;;;;;;16.32;54.77;101654.69;4918638;28;96734;-83
2023/05/21 01:35:31;;;;;;;2.40;2.20;;;;;;;16.28;54.02;101659.75;4919770;28;97158;-84
2023/05/21 01:38:18;;;;;;;2.30;2.10;;;;;;;16.24;54.36;101660.03;4922748;28;100579;-84
2023/05/21 01:40:46;;;;;;;2.33;2.17;;;;;;;16.25;53.91;101644.88;4918626;28;97014;-83
2023/05/21 01:43:13;;;;;;;1.80;1.70;;;;;;;16.28;53.93;101657.75;4915232;28;97456;-84
2023/05/21 01:45:39;;;;;;;1.70;1.60;;;;;;;16.28;53.82;101648.66;4931591;27;96870;-84
2023/05/21 01:48:06;;;;;;;2.10;2.00;;;;;;;16.27;53.84;101653.44;4918263;28;97175;-84
2023/05/21 01:50:34;;;;;;;2.20;2.00;;;;;;;16.30;53.83;101635.00;4914704;28;97288;-83
2023/05/21 01:53:04;;;;;;;2.40;2.23;;;;;;;16.23;53.91;101635.53;4914574;28;97598;-84
2023/05/21 01:55:30;;;;;;;2.20;2.03;;;;;;;16.20;53.95;101648.44;4918398;28;96979;-84
2023/05/21 01:57:56;;;;;;;2.30;1.80;;;;;;;16.24;53.99;101648.94;4920105;28;100374;-83
2023/05/21 02:00:24;;;;;;;2.53;2.30;;;;;;;16.22;53.88;101632.03;4917867;28;97111;-84
2023/05/21 02:02:50;;;;;;;2.13;1.67;;;;;;;16.22;53.86;101631.25;4918206;28;97341;-83
2023/05/21 02:05:16;;;;;;;2.00;1.90;;;;;;;16.23;54.04;101641.84;4915676;28;97237;-83
2023/05/21 02:07:42;;;;;;;2.50;2.30;;;;;;;16.18;54.04;101639.09;4917399;28;98690;-83
2023/05/21 02:10:08;;;;;;;2.00;1.80;;;;;;;16.21;54.04;101635.28;4915331;28;100627;-83
2023/05/21 02:12:34;;;;;;;1.80;1.70;;;;;;;16.16;54.02;101630.50;4916934;28;96991;-83
2023/05/21 02:14:59;;;;;;;2.07;1.97;;;;;;;16.15;53.97;101632.53;4917952;28;97039;-84
2023/05/21 02:17:25;;;;;;;3.10;2.00;;;;;;;16.18;53.95;101648.19;4916417;28;103157;-83
2023/05/21 02:19:51;;;;;;;2.50;2.30;;;;;;;16.11;54.12;101626.47;4918405;28;97419;-83
2023/05/21 02:22:16;;;;;;;2.83;2.43;;;;;;;16.08;54.03;101619.16;4929365;28;97264;-83
2023/05/21 02:24:41;;;;;;;2.57;2.40;;;;;;;16.03;54.06;101631.00;4916233;28;97554;-84
2023/05/21 02:27:09;;;;;;;4.00;2.10;;;;;;;16.08;54.12;101637.81;4914670;28;98218;-83
2023/05/21 02:29:35;;;;;;;2.03;1.90;;;;;;;16.02;54.26;101614.88;4918041;28;97970;-83
2023/05/21 02:32:01;;;;;;;2.00;1.80;;;;;;;16.07;54.27;101622.44;4918106;28;99722;-84
2023/05/21 02:34:29;;;;;;;2.50;2.27;;;;;;;16.02;54.14;101615.63;4914288;28;97205;-83
2023/05/21 02:36:55;;;;;;;2.30;2.10;;;;;;;16.07;54.39;101639.88;4935474;28;99492;-83
2023/05/21 02:39:20;;;;;;;2.10;1.80;;;;;;;16.06;54.19;101635.56;4912763;28;97530;-83
2023/05/21 02:41:46;;;;;;;2.63;2.10;;;;;;;16.03;54.19;101619.91;4918625;28;97312;-83
2023/05/21 02:44:12;;;;;;;2.10;2.00;;;;;;;15.96;54.37;101614.13;4915692;28;96961;-83
2023/05/21 02:46:37;;;;;;;1.93;1.83;;;;;;;16.01;54.39;101625.22;4919940;28;97018;-83
2023/05/21 02:49:02;;;;;;;1.90;1.80;;;;;;;15.98;54.45;101637.34;4933027;27;99266;-84
2023/05/21 02:51:28;;;;;;;2.03;1.93;;;;;;;15.98;54.48;101629.03;4920012;28;96863;-84
2023/05/21 02:53:53;;;;;;;1.77;1.63;;;;;;;15.99;54.42;101615.91;4917710;28;97201;-83
2023/05/21 02:56:18;;;;;;;2.00;1.90;;;;;;;15.99;54.26;101622.19;4936494;28;99693;-84
2023/05/21 02:58:44;;;;;;;2.90;2.17;;;;;;;16.01;54.35;101625.22;4919537;28;97609;-83
2023/05/21 03:01:09;;;;;;;3.87;2.67;;;;;;;16.02;54.32;101626.75;4915308;28;97638;-83
2023/05/21 03:03:35;;;;;;;2.37;2.00;;;;;;;16.03;54.41;101617.13;4920032;28;96767;-83
2023/05/21 03:06:00;;;;;;;2.13;1.93;;;;;;;16.00;54.34;101606.28;4916933;28;97354;-84
2023/05/21 03:08:25;;;;;;;2.20;2.00;;;;;;;15.89;54.44;101628.50;4913359;28;97117;-83
2023/05/21 03:10:51;;;;;;;2.30;2.03;;;;;;;15.99;54.26;101627.75;4918516;28;97028;-84
2023/05/21 03:13:16;;;;;;;2.40;1.43;;;;;;;15.93;54.34;101663.06;4913005;28;97288;-84
2023/05/21 03:15:42;;;;;;;2.33;2.23;;;;;;;15.91;54.37;101604.53;4915097;28;97783;-84
2023/05/21 03:18:08;;;;;;;1.63;1.53;;;;;;;15.96;54.55;101623.22;4915709;28;97199;-82
2023/05/21 03:20:34;;;;;;;1.87;1.67;;;;;;;15.97;54.38;101671.13;4917653;28;97063;-84
2023/05/21 03:23:03;;;;;;;4.10;1.87;;;;;;;15.87;54.32;101620.69;4915536;28;97094;-83
2023/05/21 03:25:28;;;;;;;1.80;1.70;;;;;;;15.93;54.40;101638.09;4913820;28;97445;-84
2023/05/21 03:27:54;;;;;;;2.00;1.90;;;;;;;15.93;54.39;101668.63;4919461;28;97980;-83
2023/05/21 03:30:19;;;;;;;1.93;1.77;;;;;;;15.97;54.37;101616.38;4913261;28;97136;-84
2023/05/21 03:32:45;;;;;;;1.90;1.80;;;;;;;15.86;54.41;101577.53;4913991;28;96941;-83
2023/05/21 03:35:11;;;;;;;3.27;2.00;;;;;;;15.87;54.83;101645.69;4916333;28;100270;-83
2023/05/21 03:37:36;;;;;;;2.23;2.10;;;;;;;15.89;54.50;101612.63;4916147;28;100500;-83
2023/05/21 03:40:02;;;;;;;3.13;2.00;;;;;;;15.84;54.46;101582.84;4916889;28;97264;-84
2023/05/21 03:42:27;;;;;;;2.80;2.30;;;;;;;15.85;54.51;101626.00;4914932;28;97133;-83
2023/05/21 03:44:53;;;;;;;1.87;1.77;;;;;;;15.84;54.48;101643.91;4911533;28;99024;-84
2023/05/21 03:47:18;;;;;;;2.00;1.90;;;;;;;15.84;54.51;101618.94;4918748;28;102342;-84
2023/05/21 03:49:43;;;;;;;1.83;1.73;;;;;;;15.81;54.55;101661.56;4916779;28;96706;-84
2023/05/21 03:52:08;;;;;;;3.67;1.90;;;;;;;15.80;54.60;101648.19;4914310;28;96816;-81
2023/05/21 03:54:34;;;;;;;2.07;1.97;;;;;;;15.86;54.63;101612.88;4914362;28;98311;-84
2023/05/21 03:57:00;;;;;;;2.07;1.97;;;;;;;15.89;54.56;101612.63;4912233;28;100662;-84
2023/05/21 03:59:25;;;;;;;2.20;1.77;;;;;;;15.91;54.37;101610.09;4916246;28;97521;-84
2023/05/21 04:01:50;;;;;;;4.13;1.80;;;;;;;15.89;54.25;101593.19;4912655;28;97206;-83
2023/05/21 04:04:15;;;;;;;1.97;1.80;;;;;;;15.90;54.51;101605.06;4914434;28;99053;-84
2023/05/21 04:06:43;;;;;;;2.00;1.90;;;;;;;15.88;54.63;101597.22;4915091;28;97652;-83
2023/05/21 04:09:08;;;;;;;2.70;2.20;;;;;;;15.89;54.80;101595.22;4914844;28;97288;-83
2023/05/21 04:11:34;;;;;;;2.20;2.07;;;;;;;15.84;54.66;101584.84;4915700;28;97864;-83
2023/05/21 04:14:00;;;;;;;2.13;1.93;;;;;;;15.89;54.70;101600.75;4916003;28;98171;-84
2023/05/21 04:16:25;;;;;;;2.37;2.17;;;;;;;15.86;54.88;101615.66;4914704;28;97756;-83
2023/05/21 04:18:51;;;;;;;2.53;2.33;;;;;;;15.83;54.88;101594.47;4916702;28;97299;-83
2023/05/21 04:21:16;;;;;;;1.80;1.70;;;;;;;15.87;54.99;101600.50;4916910;28;96995;-82
2023/05/21 04:23:41;;;;;;;2.00;1.90;;;;;;;15.81;54.99;101621.97;4916285;28;97286;-83
2023/05/21 04:26:07;;;;;;;1.97;1.87;;;;;;;15.91;54.99;101601.78;4919176;28;97611;-83
2023/05/21 04:28:34;;;;;;;2.10;2.00;;;;;;;15.93;55.06;101596.47;4917449;28;97783;-83
2023/05/21 04:31:00;;;;;;;2.20;1.60;;;;;;;15.97;54.95;101619.16;4921290;28;97164;-83
2023/05/21 04:33:25;;;;;;;2.23;1.80;;;;;;;15.95;54.99;101621.69;4918558;28;98662;-82
2023/05/21 04:35:51;;;;;;;2.17;1.90;;;;;;;15.99;54.94;101627.00;4921352;28;97076;-83
2023/05/21 04:38:20;;;;;;;2.33;2.23;;;;;;;16.04;54.89;101651.97;4919117;28;96970;-83
2023/05/21 04:40:49;;;;;;;2.37;2.10;;;;;;;16.08;54.95;101640.59;4915604;28;97185;-84
2023/05/21 04:43:15;;;;;;;3.20;2.43;;;;;;;16.09;55.05;101614.38;4917066;28;98168;-83
2023/05/21 04:45:41;;;;;;;2.60;2.40;;;;;;;16.05;55.00;101622.97;4917793;28;99225;-84
2023/05/21 04:48:07;;;;;;;2.80;2.20;;;;;;;16.11;55.22;101606.28;4920015;28;96810;-84
2023/05/21 04:50:32;;;;;;;2.67;2.47;;;;;;;16.20;54.92;101631.78;4914685;28;97404;-83
2023/05/21 04:52:58;;;;;;;3.13;2.17;;;;;;;16.20;54.98;101614.34;4915425;28;99021;-84
2023/05/21 04:55:23;;;;;;;3.00;2.40;;;;;;;16.14;55.18;101628.22;4917562;28;99610;-84
2023/05/21 04:57:49;;;;;;;2.10;1.70;;;;;;;16.18;55.05;101625.97;4916883;28;97489;-83
2023/05/21 05:00:16;;;;;;;3.30;2.13;;;;;;;16.21;55.14;101611.06;4915625;28;97443;-83
2023/05/21 05:02:41;;;;;;;2.20;2.10;;;;;;;16.22;55.01;101611.81;4919218;28;99439;-83
2023/05/21 05:05:07;;;;;;;4.00;2.37;;;;;;;16.26;55.17;101604.75;4917778;28;97968;-83
2023/05/21 05:07:32;;;;;;;3.10;2.80;;;;;;;16.31;55.06;101600.44;4917299;28;97642;-84
2023/05/21 05:09:57;;;;;;;2.47;1.80;;;;;;;16.35;55.10;101609.25;4916417;28;96864;-84
2023/05/21 05:12:23;;;;;;;2.30;2.10;;;;;;;16.36;55.14;101594.09;4915263;28;97578;-84
2023/05/21 05:14:48;;;;;;;3.20;2.07;;;;;;;16.41;55.14;101652.41;4911288;28;98910;-83
2023/05/21 05:17:13;;;;;;;2.60;2.40;;;;;;;16.40;55.18;101611.28;4915344;28;97250;-84
2023/05/21 05:19:39;;;;;;;2.90;2.00;;;;;;;16.45;55.05;101639.03;4913189;28;97405;-83
2023/05/21 05:22:05;;;;;;;1.87;1.77;;;;;;;16.51;55.07;101633.50;4914417;28;98816;-84
2023/05/21 05:24:31;;;;;;;2.40;2.10;;;;;;;16.57;55.05;101645.34;4920616;28;100731;-85
2023/05/21 05:26:56;;;;;;;1.83;1.73;;;;;;;16.58;55.13;101621.84;4916673;28;97436;-83
2023/05/21 05:29:21;;;;;;;2.40;2.30;;;;;;;16.65;55.17;101598.31;4917075;28;97916;-84
2023/05/21 05:31:47;;;;;;;2.63;2.43;;;;;;;16.69;55.09;101605.13;4919265;28;97566;-84
2023/05/21 05:34:12;;;;;;;2.57;2.37;;;;;;;16.84;55.10;101616.69;4919422;28;100115;-83
2023/05/21 05:36:37;;;;;;;4.27;2.50;;;;;;;16.91;55.14;101637.63;4915303;28;97926;-84
2023/05/21 05:39:03;;;;;;;3.10;2.60;;;;;;;17.03;55.04;101600.94;4914973;28;97346;-83
2023/05/21 05:41:28;;;;;;;3.10;2.80;;;;;;;17.09;54.99;101593.31;4909832;28;100217;-83
2023/05/21 05:43:53;;;;;;;3.30;2.90;;;;;;;17.14;55.02;101620.34;4917183;28;97337;-84
2023/05/21 05:46:19;;;;;;;2.83;2.63;;;;;;;17.20;54.98;101598.03;4913996;28;96902;-84
2023/05/21 05:48:44;;;;;;;4.40;3.10;;;;;;;17.21;55.05;101599.56;4916807;28;97492;-85
2023/05/21 05:51:10;;;;;;;3.57;3.30;;;;;;;17.11;54.88;101590.75;4958620;28;100643;-86
2023/05/21 05:53:36;;;;;;;3.70;3.00;;;;;;;17.28;54.92;101598.25;4913181;28;100398;-85
2023/05/21 05:56:02;;;;;;;3.20;2.70;;;;;;;17.33;54.97;101611.34;4933555;28;97320;-85
2023/05/21 05:58:29;;;;;;;4.20;3.20;;;;;;;17.40;54.87;101608.78;4923050;28;97981;-84
2023/05/21 06:00:54;;;;;;;4.27;3.57;;;;;;;17.37;54.88;101604.25;4916152;28;97200;-84
2023/05/21 06:03:20;;;;;;;5.90;3.80;;;;;;;17.46;54.84;101590.00;4915822;28;98396;-84
2023/05/21 06:05:45;;;;;;;3.37;3.07;;;;;;;17.53;54.88;101589.50;4914650;28;97070;-84
2023/05/21 06:08:10;;;;;;;3.83;3.53;;;;;;;17.66;54.71;101622.28;4915442;28;97304;-84
2023/05/21 06:10:36;;;;;;;3.43;3.13;;;;;;;17.66;54.75;101606.34;4914313;28;97907;-84
2023/05/21 06:13:01;;;;;;;5.10;3.83;;;;;;;17.65;54.91;101638.22;4914884;28;97556;-84
2023/05/21 06:15:26;;;;;;;5.83;3.70;;;;;;;17.78;54.84;101607.72;4916408;28;98150;-84
2023/05/21 06:17:52;;;;;;;4.30;3.80;;;;;;;17.82;54.70;101596.34;4917478;28;96864;-84
2023/05/21 06:20:17;;;;;;;4.10;3.70;;;;;;;17.85;54.60;101612.75;4925529;28;99341;-85
2023/05/21 06:22:42;;;;;;;3.60;3.30;;;;;;;17.86;54.81;101605.91;4917494;28;98774;-84
2023/05/21 06:25:09;;;;;;;5.40;3.80;;;;;;;17.93;54.72;101612.94;4915956;28;97049;-84
2023/05/21 06:27:36;;;;;;;5.37;4.03;;;;;;;17.96;54.93;101618.22;4913659;28;97212;-84
2023/05/21 06:30:01;;;;;;;4.17;3.77;;;;;;;18.06;54.74;101596.34;4911695;28;100163;-84
2023/05/21 06:32:27;;;;;;;4.43;4.03;;;;;;;18.09;54.79;101591.75;4914866;28;98072;-83
2023/05/21 06:34:52;;;;;;;5.13;4.17;;;;;;;18.09;54.81;101614.78;4916215;28;96773;-84
2023/05/21 06:37:19;;;;;;;5.27;4.67;;;;;;;18.09;54.77;101611.25;4915246;28;97688;-83
2023/05/21 06:39:45;;;;;;;6.00;4.93;;;;;;;18.19;54.73;101626.34;4927394;28;99462;-85
2023/05/21 06:42:10;;;;;;;4.13;3.83;;;;;;;18.25;54.66;101618.69;4926174;28;98941;-83
2023/05/21 06:44:35;;;;;;;6.07;5.10;;;;;;;18.19;54.84;101590.13;4936875;28;97319;-85
2023/05/21 06:47:01;;;;;;;4.97;4.57;;;;;;;18.26;54.65;101623.72;4916860;28;97345;-84
2023/05/21 06:49:26;;;;;;;6.83;4.70;;;;;;;18.26;54.67;101607.00;4917927;28;97253;-86
2023/05/21 06:51:51;;;;;;;6.97;4.67;;;;;;;18.42;54.58;101594.19;4913558;28;97144;-84
2023/05/21 06:54:17;;;;;;;5.43;4.70;;;;;;;18.46;54.82;101591.88;4917506;28;96668;-85
2023/05/21 06:56:42;;;;;;;5.07;4.23;;;;;;;18.65;54.61;101584.31;4932508;28;96892;-85
2023/05/21 06:59:08;;;;;;;4.90;4.50;;;;;;;18.73;54.50;101621.47;4914608;28;97926;-85
2023/05/21 07:01:33;;;;;;;5.27;4.83;;;;;;;18.89;54.43;101633.69;4914800;28;96815;-85
2023/05/21 07:03:58;;;;;;;5.30;4.80;;;;;;;18.93;54.38;101575.56;4916065;28;97011;-85
2023/05/21 07:06:24;;;;;;;5.10;4.33;;;;;;;19.12;54.11;101598.63;4915033;28;96822;-85
2023/05/21 07:08:49;;;;;;;4.70;4.20;;;;;;;19.19;54.12;101573.66;4917408;28;98644;-85
2023/05/21 07:11:15;;;;;;;5.97;5.37;;;;;;;19.21;54.04;101575.91;4920727;28;100156;-85
2023/05/21 07:13:40;;;;;;;6.17;4.90;;;;;;;19.35;53.90;101572.66;4917724;28;97463;-85
2023/05/21 07:16:06;;;;;;;5.83;4.73;;;;;;;19.40;54.07;101569.03;4915041;28;96844;-86
2023/05/21 07:18:31;;;;;;;5.53;5.03;;;;;;;19.52;54.02;101566.06;4915719;28;97056;-85
2023/05/21 07:20:57;;;;;;;7.20;6.10;;;;;;;19.60;54.02;101578.88;4916271;28;98259;-85
2023/05/21 07:23:22;;;;;;;6.43;5.47;;;;;;;19.67;53.91;101571.91;4921595;28;97110;-85
2023/05/21 07:25:48;;;;;;;6.47;5.87;;;;;;;19.72;53.77;101573.84;4917092;28;96694;-85
2023/05/21 07:28:13;;;;;;;7.40;6.30;;;;;;;19.81;53.89;101610.50;4916000;28;99661;-85
2023/05/21 07:30:39;;;;;;;7.50;5.60;;;;;;;19.88;53.70;101562.38;4914350;28;99485;-85
2023/05/21 07:33:04;;;;;;;7.63;6.50;;;;;;;19.98;53.68;101559.94;4912717;28;96753;-85
2023/05/21 07:35:29;;;;;;;6.17;5.60;;;;;;;20.11;53.53;101615.81;4919146;28;96813;-85
2023/05/21 07:37:55;;;;;;;7.30;5.70;;;;;;;20.23;53.42;101610.78;4915045;28;98074;-85
2023/05/21 07:40:20;;;;;;;6.03;5.53;;;;;;;20.22;53.46;101615.66;4922048;28;97744;-85
2023/05/21 07:42:46;;;;;;;6.90;6.20;;;;;;;20.28;53.49;101552.00;4923247;28;98213;-85
2023/05/21 07:45:11;;;;;;;6.60;5.87;;;;;;;20.36;53.26;101568.88;4916823;28;97397;-85
2023/05/21 07:47:36;;;;;;;7.77;6.97;;;;;;;20.35;53.25;101610.06;4919145;28;97520;-85
2023/05/21 07:50:02;;;;;;;7.23;5.93;;;;;;;20.32;53.39;101590.81;4924521;28;99271;-86
2023/05/21 07:52:27;;;;;;;7.17;6.13;;;;;;;20.38;53.44;101599.84;4918482;28;96832;-85
2023/05/21 07:54:53;;;;;;;7.80;7.00;;;;;;;20.52;53.34;101570.56;4911778;28;97216;-85
2023/05/21 07:57:18;;;;;;;9.00;6.73;;;;;;;20.52;53.28;101610.47;4913755;28;96868;-85
2023/05/21 07:59:43;;;;;;;8.43;7.20;;;;;;;20.62;53.37;101564.00;4912758;28;97554;-85
2023/05/21 08:02:09;;;;;;;6.87;6.20;;;;;;;20.70;53.22;101573.25;4917353;28;97065;-86
2023/05/21 08:04:34;;;;;;;6.80;6.20;;;;;;;20.77;53.07;101561.38;4922288;28;97198;-86
2023/05/21 08:07:00;;;;;;;8.43;7.40;;;;;;;20.91;53.14;101585.25;4914476;28;97520;-86
2023/05/21 08:09:25;;;;;;;9.00;7.07;;;;;;;20.99;52.97;101579.72;4916429;28;97657;-86
2023/05/21 08:11:51;;;;;;;11.40;7.90;;;;;;;21.05;52.76;101610.41;4922896;28;96775;-86
2023/05/21 08:14:16;;;;;;;9.83;8.77;;;;;;;21.12;52.93;101565.72;4919551;28;97198;-85
2023/05/21 08:16:42;;;;;;;9.60;8.70;;;;;;;21.13;52.67;101569.25;4913454;28;97566;-85
2023/05/21 08:19:07;;;;;;;9.60;8.50;;;;;;;21.17;52.60;101569.66;4928105;28;99141;-86
2023/05/21 08:21:33;;;;;;;9.07;8.03;;;;;;;21.22;52.63;101572.34;4915319;28;97544;-86
2023/05/21 08:23:59;;;;;;;9.77;8.37;;;;;;;21.23;52.54;101590.63;4915633;28;96845;-85
2023/05/21 08:26:24;;;;;;;10.53;9.23;;;;;;;21.33;52.57;101616.13;4914155;28;101063;-84
2023/05/21 08:28:50;;;;;;;8.77;7.90;;;;;;;21.41;52.48;101569.34;4913161;28;97220;-86
2023/05/21 08:31:17;;;;;;;9.23;8.33;;;;;;;21.46;52.26;101600.03;4919876;28;97008;-86
2023/05/21 08:33:50;;;;;;;8.97;8.07;;;;;;;21.48;52.40;101586.22;4918683;28;97278;-86
2023/05/21 08:36:15;;;;;;;11.33;9.13;;;;;;;21.54;52.32;101600.09;4922362;28;100389;-85
2023/05/21 08:38:41;;;;;;;10.50;9.03;;;;;;;21.64;52.21;101598.31;4916672;28;98711;-84
2023/05/21 08:41:07;;;;;;;9.37;8.47;;;;;;;21.62;52.21;101584.13;4915824;28;97020;-86
2023/05/21 08:43:33;;;;;;;9.97;8.87;;;;;;;21.74;51.97;101567.75;4931668;28;97658;-86
2023/05/21 08:45:59;;;;;;;13.77;9.53;;;;;;;21.78;52.08;101596.94;4915866;28;99638;-85
2023/05/21 08:48:25;;;;;;;8.97;8.07;;;;;;;21.82;51.87;101572.13;4915422;28;96718;-84
2023/05/21 08:50:52;;;;;;;11.90;8.67;;;;;;;21.99;51.90;101566.88;4930174;28;97448;-85
2023/05/21 08:53:17;;;;;;;9.90;8.90;;;;;;;22.03;51.70;101577.72;4917340;28;96955;-85
2023/05/21 08:55:43;;;;;;;12.20;8.13;;;;;;;22.09;51.70;101569.91;4939004;28;99621;-86
2023/05/21 08:58:09;;;;;;;10.80;8.90;;;;;;;22.22;51.58;101567.75;4922284;28;100658;-85
2023/05/21 09:00:34;;;;;;;8.40;7.43;;;;;;;22.38;51.58;101557.38;4919205;28;96819;-85
2023/05/21 09:03:01;;;;;;;9.23;8.27;;;;;;;22.48;51.26;101577.22;4929986;28;98105;-86
2023/05/21 09:05:27;;;;;;;9.07;7.70;;;;;;;22.64;51.26;101562.00;4916447;28;97971;-85
2023/05/21 09:08:02;;;;;;;9.50;8.07;;;;;;;22.71;50.67;101562.03;4919204;28;99395;-85
2023/05/21 09:10:34;;;;;;;9.60;8.60;;;;;;;22.78;50.93;101561.31;4921219;28;98472;-85
2023/05/21 09:13:00;;;;;;;13.10;8.63;;;;;;;22.91;50.60;101563.97;4922089;28;96994;-84
2023/05/21 09:15:25;;;;;;;8.70;8.00;;;;;;;22.92;50.62;101573.13;4920264;28;100061;-85
2023/05/21 09:17:51;;;;;;;9.10;8.20;;;;;;;22.88;50.51;101559.47;4927386;28;98706;-84
2023/05/21 09:20:16;;;;;;;9.13;8.23;;;;;;;22.94;50.53;101578.94;4917165;28;97638;-84
2023/05/21 09:22:43;;;;;;;10.20;9.20;;;;;;;22.91;50.41;101610.94;4917525;28;96840;-84
2023/05/21 09:25:10;;;;;;;9.47;8.53;;;;;;;22.93;50.51;101555.00;4917842;28;99854;-85
2023/05/21 09:27:36;;;;;;;8.67;7.70;;;;;;;23.00;50.38;101582.31;4919347;28;101577;-85
2023/05/21 09:30:03;;;;;;;8.30;7.53;;;;;;;23.17;50.38;101565.72;4922460;28;97118;-85
2023/05/21 09:32:29;;;;;;;9.23;8.30;;;;;;;23.31;50.16;101569.09;4918461;28;97363;-85
2023/05/21 09:34:55;;;;;;;8.90;8.07;;;;;;;23.36;50.01;101562.59;4917820;28;98438;-86
2023/05/21 09:37:21;;;;;;;10.23;9.23;;;;;;;23.38;49.80;101569.13;4920344;28;99260;-85
2023/05/21 09:39:47;;;;;;;10.40;9.30;;;;;;;23.37;49.74;101559.19;4917982;28;97122;-84
2023/05/21 09:42:12;;;;;;;9.00;8.10;;;;;;;23.38;49.79;101588.81;4917670;28;97644;-86
2023/05/21 09:44:38;;;;;;;9.53;8.50;;;;;;;23.50;49.96;101584.31;4918124;28;99212;-86
2023/05/21 09:47:04;;;;;;;8.77;7.93;;;;;;;23.63;49.83;101569.34;4916549;28;97907;-84
2023/05/21 09:49:30;;;;;;;11.00;8.67;;;;;;;23.72;49.67;101583.56;4917629;28;97059;-86
2023/05/21 09:51:59;;;;;;;8.00;7.30;;;;;;;23.89;49.45;101554.91;4918886;28;97133;-85
2023/05/21 09:54:30;;;;;;;9.80;8.90;;;;;;;24.02;49.14;101556.75;4917881;28;98046;-85
2023/05/21 09:56:55;;;;;;;8.63;7.77;;;;;;;24.11;49.29;101562.56;4916545;28;97926;-86
2023/05/21 09:59:21;;;;;;;8.90;7.60;;;;;;;24.23;49.14;101557.28;4917584;28;97183;-85
2023/05/21 10:01:50;;;;;;;8.67;7.77;;;;;;;24.18;48.76;101539.28;4917128;28;97434;-85
2023/05/21 10:04:16;;;;;;;9.97;8.50;;;;;;;24.30;48.83;101539.63;4933284;27;99853;-86
2023/05/21 10:06:42;;;;;;;8.83;8.13;;;;;;;24.48;48.73;101544.84;4918424;28;98723;-86
2023/05/21 10:09:14;;;;;;;8.67;7.87;;;;;;;24.67;48.33;101535.91;4917760;28;97660;-85
2023/05/21 10:11:43;;;;;;;8.87;8.07;;;;;;;24.75;48.28;101550.72;4925652;28;97222;-86
2023/05/21 10:14:15;;;;;;;9.30;8.43;;;;;;;24.92;48.10;101547.28;4917459;28;97952;-86
2023/05/21 10:16:41;;;;;;;10.23;8.10;;;;;;;25.14;48.08;101566.84;4916698;28;97623;-85
2023/05/21 10:19:10;;;;;;;9.47;8.40;;;;;;;25.34;47.87;101524.84;4915658;28;97240;-86
2023/05/21 10:21:35;;;;;;;10.57;8.67;;;;;;;25.57;47.52;101533.88;4918637;28;97372;-85
2023/05/21 10:24:03;;;;;;;11.33;9.10;;;;;;;25.61;47.11;101534.19;4917012;28;96920;-84
2023/05/21 10:26:29;;;;;;;9.73;8.83;;;;;;;25.59;47.15;101534.03;4921797;28;99102;-86
2023/05/21 10:28:56;;;;;;;9.33;8.20;;;;;;;25.70;46.85;101533.56;4919464;28;97087;-88
2023/05/21 10:31:22;;;;;;;9.13;8.30;;;;;;;25.81;46.77;101531.00;4930800;28;97322;-86
2023/05/21 10:33:47;;;;;;;11.40;9.50;;;;;;;25.74;46.53;101526.19;4917490;28;100312;-86
2023/05/21 10:36:15;;;;;;;10.07;8.27;;;;;;;25.72;46.75;101533.72;4917850;28;99148;-87
2023/05/21 10:38:42;;;;;;;8.57;7.83;;;;;;;25.75;46.81;101536.13;4918280;28;96741;-85
2023/05/21 10:41:09;;;;;;;9.60;8.60;;;;;;;25.87;46.87;101544.84;4919533;28;97443;-85
2023/05/21 10:44:02;;;;;;;8.50;7.70;;;;;;;25.96;46.33;101527.28;4914865;28;97559;-85
2023/05/21 10:46:49;;;;;;;8.83;7.90;;;;;;;25.96;46.25;101528.03;4919866;28;97109;-83
2023/05/21 10:49:33;;;;;;;8.37;7.60;;;;;;;26.07;46.46;101509.84;4920267;28;97324;-84
2023/05/21 10:52:12;;;;;;;8.77;8.00;;;;;;;26.14;46.09;101517.53;4915412;28;99014;-84
2023/05/21 10:55:16;;;;;;;9.40;8.50;;;;;;;26.22;45.58;101504.06;4914419;28;99622;-86
2023/05/21 10:58:07;;;;;;;8.70;7.90;;;;;;;26.27;45.47;101505.16;4930898;27;101204;-84
2023/05/21 11:00:33;;;;;;;8.90;8.10;;;;;;;26.30;46.17;101504.72;4918168;28;97224;-84
2023/05/21 11:03:00;;;;;;;8.57;7.83;;;;;;;26.37;45.93;101503.13;4916579;28;97336;-85
2023/05/21 11:05:54;;;;;;;8.47;7.70;;;;;;;26.56;45.56;101491.97;4914804;28;98189;-83
2023/05/21 11:08:34;;;;;;;8.97;8.17;;;;;;;26.70;44.85;101495.91;4916753;28;98352;-84
2023/05/21 11:11:00;;;;;;;8.80;8.00;;;;;;;26.78;45.27;101502.22;4919374;28;96784;-84
2023/05/21 11:13:27;;;;;;;9.77;8.77;;;;;;;26.78;45.04;101510.69;4917496;28;97607;-84
2023/05/21 11:16:00;;;;;;;8.27;7.47;;;;;;;27.03;44.75;101502.03;4914674;28;97138;-81
2023/05/21 11:18:34;;;;;;;8.23;7.43;;;;;;;27.27;44.19;101487.72;4925232;28;97353;-82
2023/05/21 11:21:08;;;;;;;7.90;7.10;;;;;;;27.45;44.05;101482.72;4917061;28;97183;-82
2023/05/21 11:23:49;;;;;;;8.23;7.53;;;;;;;27.57;43.43;101482.88;4914437;28;97327;-85